createdAt,value
2022-11-03T00:00:30.402Z,13.000000
2022-11-03T00:05:19.770Z,13.000000
2022-11-03T00:10:22.843Z,12.972727
2022-11-03T00:15:25.911Z,12.854545
2022-11-03T00:20:30.457Z,12.758333
2022-11-03T00:25:20.217Z,12.700000
2022-11-03T00:30:23.279Z,12.727273
2022-11-03T00:35:26.395Z,12.807692
2022-11-03T00:40:31.036Z,12.900000
2022-11-03T00:45:20.683Z,12.990909
2022-11-03T00:50:23.755Z,13.000000
2022-11-03T00:55:26.832Z,13.000000
2022-11-03T01:00:30.321Z,12.900000
2022-11-03T01:05:21.026Z,12.808333
2022-11-03T01:10:24.049Z,12.800000
2022-11-03T01:15:27.372Z,12.741667
2022-11-03T01:20:30.694Z,12.663636
2022-11-03T01:25:21.594Z,12.609091
2022-11-03T01:30:24.678Z,12.709091
2022-11-03T01:35:30.510Z,12.827273
2022-11-03T01:40:18.877Z,12.900000
2022-11-03T01:45:21.933Z,12.900000
2022-11-03T01:50:25.362Z,12.858333
2022-11-03T01:55:30.276Z,12.770000
2022-11-03T02:00:19.391Z,12.672727
2022-11-03T02:05:22.408Z,12.581818
2022-11-03T02:10:25.702Z,12.500000
2022-11-03T02:15:30.245Z,12.427273
2022-11-03T02:20:20.059Z,12.344444
2022-11-03T02:25:23.262Z,12.227273
2022-11-03T02:30:26.440Z,12.109091
2022-11-03T02:35:30.379Z,12.100000
2022-11-03T02:40:20.508Z,12.100000
2022-11-03T02:45:23.606Z,12.100000
2022-11-03T02:50:26.856Z,12.100000
2022-11-03T02:55:30.302Z,12.010000
2022-11-03T03:00:21.034Z,12.000000
2022-11-03T03:05:24.056Z,12.000000
2022-11-03T03:10:27.175Z,12.000000
2022-11-03T03:15:42.446Z,12.000000
2022-11-03T03:20:21.407Z,12.000000
2022-11-03T03:25:24.706Z,12.000000
2022-11-03T03:30:30.313Z,11.990909
2022-11-03T03:35:30.824Z,11.900000
2022-11-03T03:40:21.835Z,11.900000
2022-11-03T03:45:25.128Z,11.972727
2022-11-03T03:50:28.081Z,11.972727
2022-11-03T03:55:19.229Z,11.900000
2022-11-03T04:00:22.261Z,11.790000
2022-11-03T04:05:25.328Z,11.680000
2022-11-03T04:10:30.400Z,11.600000
2022-11-03T04:15:19.526Z,11.600000
2022-11-03T04:20:23.135Z,11.600000
2022-11-03T04:25:26.377Z,11.500000
2022-11-03T04:30:30.350Z,11.433333
2022-11-03T04:35:20.506Z,11.318182
2022-11-03T04:40:24.240Z,11.300000
2022-11-03T04:45:26.688Z,11.291667
2022-11-03T04:50:30.297Z,11.200000
2022-11-03T04:55:20.801Z,11.200000
2022-11-03T05:00:23.919Z,11.181818
2022-11-03T05:05:27.309Z,11.100000
2022-11-03T05:10:30.385Z,11.200000
2022-11-03T05:15:21.229Z,11.200000
2022-11-03T05:20:24.655Z,11.200000
2022-11-03T05:25:30.434Z,11.241667
2022-11-03T05:30:30.955Z,11.308333
2022-11-03T05:35:21.872Z,11.445455
2022-11-03T05:40:25.066Z,11.650000
2022-11-03T05:45:28.162Z,11.838462
2022-11-03T05:50:19.116Z,11.955556
2022-11-03T05:55:22.344Z,12.066667
2022-11-03T06:00:25.494Z,12.150000
2022-11-03T06:05:30.352Z,12.333333
2022-11-03T06:10:19.597Z,12.500000
2022-11-03T06:15:22.711Z,12.733333
2022-11-03T06:20:26.202Z,12.972727
2022-11-03T06:25:30.300Z,13.166667
2022-11-03T06:30:20.327Z,13.341667
2022-11-03T06:35:23.557Z,13.522222
2022-11-03T06:40:26.638Z,13.736364
2022-11-03T06:45:30.003Z,13.881818
2022-11-03T06:50:20.798Z,13.936364
2022-11-03T06:55:23.915Z,14.000000
2022-11-03T07:00:34.156Z,14.072727
2022-11-03T07:05:30.161Z,14.192308
2022-11-03T07:10:21.171Z,14.300000
2022-11-03T07:15:24.353Z,14.346154
2022-11-03T07:20:30.466Z,14.445455
2022-11-03T07:25:18.876Z,14.560000
2022-11-03T07:30:22.127Z,14.700000
2022-11-03T07:35:25.186Z,14.790000
2022-11-03T07:40:30.456Z,14.862500
2022-11-03T07:45:19.422Z,14.900000
2022-11-03T07:50:22.453Z,14.962500
2022-11-03T07:55:25.529Z,15.075000
2022-11-03T08:00:28.753Z,15.260000
2022-11-03T08:05:25.190Z,15.300000
2022-11-03T08:10:22.909Z,15.390000
2022-11-03T08:15:25.966Z,15.472727
2022-11-03T08:20:29.635Z,15.522222
2022-11-03T08:25:20.570Z,15.588889
2022-11-03T08:30:23.796Z,15.580000
2022-11-03T08:35:30.052Z,15.700000
2022-11-03T08:40:30.388Z,15.740000
2022-11-03T08:45:21.033Z,15.881818
2022-11-03T08:50:24.280Z,16.000000
2022-11-03T08:55:27.262Z,16.211111
2022-11-03T09:00:42.631Z,16.360000
2022-11-03T09:05:21.348Z,16.400000
2022-11-03T09:10:28.444Z,16.400000
2022-11-03T09:15:30.409Z,16.340000
2022-11-03T09:20:19.145Z,16.300000
2022-11-03T09:25:22.187Z,16.384615
2022-11-03T09:30:25.329Z,16.500000
2022-11-03T09:35:30.315Z,16.500000
2022-11-03T09:40:20.348Z,16.500000
2022-11-03T09:45:22.622Z,16.530000
2022-11-03T09:50:25.754Z,16.600000
2022-11-03T09:55:30.493Z,16.700000
2022-11-03T10:00:20.017Z,16.812500
2022-11-03T10:05:23.033Z,16.830769
2022-11-03T10:10:26.140Z,16.800000
2022-11-03T10:15:30.371Z,16.800000
2022-11-03T10:20:20.961Z,16.800000
2022-11-03T10:25:23.906Z,16.900000
2022-11-03T10:30:29.604Z,16.960000
2022-11-03T10:35:30.053Z,17.100000
2022-11-03T10:40:46.845Z,17.136364
2022-11-03T10:45:24.310Z,17.190909
2022-11-03T10:50:30.397Z,17.188889
2022-11-03T10:55:30.639Z,17.300000
2022-11-03T11:00:21.576Z,17.400000
2022-11-03T11:05:24.670Z,17.438462
2022-11-03T11:10:30.378Z,17.375000
2022-11-03T11:15:18.880Z,17.300000
2022-11-03T11:20:22.476Z,17.440000
2022-11-03T11:25:25.591Z,17.609091
2022-11-03T11:30:30.358Z,17.700000
2022-11-03T11:35:19.726Z,17.590000
2022-11-03T11:40:22.976Z,17.500000
2022-11-03T11:45:25.898Z,17.458333
2022-11-03T11:50:30.348Z,17.400000
2022-11-03T11:55:20.058Z,17.500000
2022-11-03T12:00:23.132Z,17.472727
2022-11-03T12:05:26.402Z,17.445455
2022-11-03T12:10:30.361Z,17.400000
2022-11-03T12:15:20.557Z,17.400000
2022-11-03T12:20:23.606Z,17.266667
2022-11-03T12:25:26.843Z,16.909091
2022-11-03T12:30:32.404Z,16.490000
2022-11-03T12:35:20.991Z,16.322222
2022-11-03T12:40:18.926Z,16.400000
2022-11-03T12:45:18.825Z,16.400000
2022-11-03T12:50:18.727Z,16.372727
2022-11-03T12:55:21.351Z,16.237500
2022-11-03T13:00:18.814Z,16.154545
2022-11-03T13:05:18.971Z,16.036364
2022-11-03T13:10:18.819Z,15.937500
2022-11-03T13:15:21.878Z,15.877778
2022-11-03T13:20:18.704Z,15.763636
2022-11-03T13:25:18.861Z,15.675000
2022-11-03T13:30:19.549Z,15.600000
2022-11-03T13:35:24.620Z,15.600000
2022-11-03T13:40:42.702Z,15.600000
2022-11-03T13:45:19.216Z,15.600000
2022-11-03T13:50:20.392Z,15.560000
2022-11-03T13:55:57.531Z,15.427273
2022-11-03T14:00:26.235Z,15.318182
2022-11-03T14:05:19.171Z,15.163636
2022-11-03T14:10:20.373Z,15.000000
2022-11-03T14:15:19.397Z,14.825000
2022-11-03T14:20:19.310Z,14.690909
2022-11-03T14:25:19.445Z,14.577778
2022-11-03T14:30:23.802Z,14.488889
2022-11-03T14:35:19.787Z,14.391667
2022-11-03T14:40:27.281Z,14.260000
2022-11-03T14:45:31.872Z,14.108333
2022-11-03T14:50:21.397Z,13.962500
2022-11-03T14:55:19.661Z,13.850000
2022-11-03T15:00:19.665Z,13.727273
2022-11-03T15:05:19.744Z,13.607692
2022-11-03T15:10:21.769Z,13.509091
2022-11-03T15:15:19.901Z,13.470000
2022-11-03T15:20:19.693Z,13.400000
2022-11-03T15:25:23.694Z,13.400000
2022-11-03T15:30:23.018Z,13.400000
2022-11-03T15:35:20.256Z,13.400000
2022-11-03T15:40:20.056Z,13.400000
2022-11-03T15:45:20.239Z,13.366667
2022-11-03T15:50:22.876Z,13.300000
2022-11-03T15:55:20.188Z,13.300000
2022-11-03T16:00:20.362Z,13.250000
2022-11-03T16:05:32.192Z,13.200000
2022-11-03T16:10:20.282Z,13.200000
2022-11-03T16:15:20.292Z,13.160000
2022-11-03T16:20:20.966Z,13.040000
2022-11-03T16:25:21.643Z,12.975000
2022-11-03T16:30:20.212Z,12.845455
2022-11-03T16:35:20.603Z,12.645455
2022-11-03T16:40:20.612Z,12.500000
2022-11-03T16:45:21.534Z,12.554545
2022-11-03T16:50:20.600Z,12.600000
2022-11-03T16:55:20.564Z,12.633333
2022-11-03T17:00:20.703Z,12.744444
2022-11-03T17:05:21.910Z,12.800000
2022-11-03T17:10:20.762Z,12.870000
2022-11-03T17:15:20.854Z,12.908333
2022-11-03T17:20:19.442Z,13.000000
2022-11-03T17:25:23.526Z,12.950000
2022-11-03T17:30:20.541Z,12.881818
2022-11-03T17:35:28.770Z,12.800000
2022-11-03T17:40:20.976Z,12.755556
2022-11-03T17:45:22.966Z,12.700000
2022-11-03T17:50:26.047Z,12.700000
2022-11-03T17:55:21.038Z,12.700000
2022-11-03T18:00:21.077Z,12.700000
2022-11-03T18:05:23.463Z,12.700000
2022-11-03T18:10:26.545Z,12.700000
2022-11-03T18:15:21.194Z,12.700000
2022-11-03T18:20:33.197Z,12.700000
2022-11-03T18:25:21.037Z,12.625000
2022-11-03T18:30:21.043Z,12.600000
2022-11-03T18:35:21.695Z,12.600000
2022-11-03T18:40:33.565Z,12.600000
2022-11-03T18:45:21.703Z,12.583333
2022-11-03T18:50:21.427Z,12.500000
2022-11-03T18:55:33.697Z,12.418182
2022-11-03T19:00:21.800Z,12.300000
2022-11-03T19:05:21.443Z,12.300000
2022-11-03T19:10:28.107Z,12.300000
2022-11-03T19:15:19.264Z,12.300000
2022-11-03T19:20:22.466Z,12.300000
2022-11-03T19:25:21.447Z,12.341667
2022-11-03T19:30:28.767Z,12.370000
2022-11-03T19:35:21.860Z,12.270000
2022-11-03T19:40:22.927Z,12.122222
2022-11-03T19:45:26.163Z,12.000000
2022-11-03T19:50:29.174Z,12.000000
2022-11-03T19:55:21.962Z,12.000000
2022-11-03T20:00:23.241Z,12.000000
2022-11-03T20:05:22.057Z,12.000000
2022-11-03T20:10:21.861Z,11.980000
2022-11-03T20:15:22.235Z,11.800000
2022-11-03T20:20:24.095Z,11.522222
2022-11-03T20:28:04.886Z,11.400000
2022-11-03T20:30:22.003Z,11.440000
2022-11-03T20:35:24.012Z,11.546154
2022-11-03T20:40:24.483Z,11.620000
2022-11-03T20:45:22.301Z,11.700000
2022-11-03T20:50:22.328Z,11.690000
2022-11-03T20:55:22.375Z,11.609091
2022-11-03T21:00:24.910Z,11.740000
2022-11-03T21:05:22.412Z,11.830000
2022-11-03T21:10:20.728Z,11.990909
2022-11-03T21:15:26.655Z,12.146154
2022-11-03T21:20:22.330Z,12.277778
2022-11-03T21:25:22.420Z,12.383333
2022-11-03T21:30:22.384Z,12.500000
2022-11-03T21:35:23.027Z,12.583333
2022-11-03T21:40:22.775Z,12.600000
2022-11-03T21:45:22.869Z,12.700000
2022-11-03T21:50:22.816Z,12.777778
2022-11-03T21:55:23.534Z,12.800000
2022-11-03T22:00:26.674Z,12.800000
2022-11-03T22:05:29.743Z,12.900000
2022-11-03T22:10:20.788Z,12.972727
2022-11-03T22:15:23.796Z,13.000000
2022-11-03T22:20:22.813Z,13.000000
2022-11-03T22:25:24.188Z,13.000000
2022-11-03T22:30:22.842Z,12.966667
2022-11-03T22:35:24.556Z,12.855556
2022-11-03T22:40:23.262Z,12.758333
2022-11-03T22:45:23.342Z,12.700000
2022-11-03T22:50:23.192Z,12.800000
2022-11-03T22:55:24.982Z,12.900000
2022-11-03T23:00:23.209Z,12.858333
2022-11-03T23:05:19.146Z,12.730000
2022-11-03T23:10:23.299Z,12.654545
2022-11-03T23:15:25.331Z,12.600000
2022-11-03T23:20:23.225Z,12.541667
2022-11-03T23:25:19.896Z,12.350000
2022-11-03T23:30:23.249Z,12.230000
2022-11-03T23:35:26.080Z,12.200000
2022-11-03T23:40:23.693Z,12.111111
2022-11-03T23:45:20.289Z,12.100000
2022-11-03T23:50:23.711Z,12.100000
2022-11-03T23:55:26.541Z,12.100000
